الصفحة الرئيسية
METAR-TAF:

METAR-TAF

مطار :

مينيرالنايي فودي, روسيا

دائرة عرض: 44-14N, خط طول: 043-04E, ارتفاع: 314 متر

مراقبة الطقس الحالي

تاريخ ووقت الإصدار 42 دقيقة قبل الساعة 16:30UTC
ريح 6 عقدة من الشرق
درجة الحرارة 29°درجة مئوية
الرطوبة 19%
ضغط 1010 hPa
الرؤية 10 كم أو أكثر

METAR: URMM 131630Z 08003MPS 9999 NSC 29/03 Q1010 R11/090070 NOSIG RMK QFE730/0973

زمن: 21:12 (17:12 UTC)

توقعات

تاريخ ووقت الإصدار 3ساعات و 12 دقيقة قبل الساعة 14:00UTC
التوقعات صالحة من13 الساعة 15 UTC إلى 14 الساعة 15 UTC
ريح 6 عقدة من الشرق تتزايد حتى 16 عقدة
الرؤية 10 كم أو أكثر
مؤقت
من 13 الساعة 15 UTC إلى 14 الساعة 15 UTC
ريح 10 عقدة من الشرق/الجنوب الشرقي تتزايد حتى 25 عقدة

TAF: URMM 131400Z 1315/1415 08003G08MPS 9999 NSC TX33/1412Z TN18/1402Z TEMPO 1315/1415 11005G13MPS

أرصاد الطقس والتوقعات من أكثر من 4000 مطار (تقارير الطقس للمطار METAR والتنبؤ بالطقس بالمطارTAF).

المحطات المتاحة هي النقط الصفراء والحمراء على الخريطة.

حرك المؤشر فوق النقطة لمعرفة اسم المحطة.

ثم انقر لمعرفة أرصاد وتوقعات الطقس.

لتغيير الخارطة: اضغط على الأزرار الخضراء مع رمز الصليب الأسود للتكبير. على الزر الأخضر مع شرطة للتصغير، أو على الأسهم الخضراء للخرائط المجاورة.


METAR-TAF: